Aviation Digital Data Service (ADDS)

Output produced by METARs form (1300 UTC 26 March 2019)
found at http://www.aviationweather.gov/metar/data/
 
KBID 261256Z AUTO 03018G25KT 10SM CLR 03/M09 A3020 RMK AO2 PK WND 03026/1244 SLP231 T00281094
KUUU 261253Z AUTO 01015G21KT 10SM CLR 02/M14 A3020 RMK AO2 SLP226 T00221139
KOQU 261250Z 03020KT 15SM SCT110 03/M14 A3021
KSFZ 261256Z AUTO 01009G19KT 10SM CLR 01/M16 A3022 RMK AO2 SLP183 T00111156 FZRANO
KPVD 261251Z COR 01014KT 10SM FEW010 FEW070 FEW300 03/M16 A3023 RMK AO2 SLP236 T00281156
KPVD 261121Z 2612/2712 02011KT P6SM SCT060 BKN300 
     FM270200 35007KT P6SM SKC
       
KWST 261253Z AUTO 01010G19KT 10SM CLR 04/M16 A3022 RMK AO2 SLP232 T00391161